createdAt,value
2023-03-22T00:00:39.751Z,10.40
2023-03-22T00:03:13.449Z,10.50
2023-03-22T00:06:23.121Z,10.50
2023-03-22T00:08:56.678Z,10.50
2023-03-22T00:11:27.503Z,10.50
2023-03-22T00:13:58.869Z,10.50
2023-03-22T00:16:29.055Z,10.50
2023-03-22T00:18:58.620Z,10.50
2023-03-22T00:21:27.257Z,10.50
2023-03-22T00:26:40.481Z,10.50
2023-03-22T00:29:11.599Z,10.50
2023-03-22T00:31:41.626Z,10.60
2023-03-22T00:34:17.424Z,10.50
2023-03-22T00:36:47.416Z,10.60
2023-03-22T00:39:16.805Z,10.60
2023-03-22T00:41:45.096Z,10.50
2023-03-22T00:44:13.772Z,10.60
2023-03-22T00:46:45.419Z,10.60
2023-03-22T00:49:16.230Z,10.60
2023-03-22T00:51:46.536Z,10.60
2023-03-22T00:54:18.592Z,10.70
2023-03-22T00:56:52.231Z,10.70
2023-03-22T00:59:23.599Z,10.70
2023-03-22T01:01:54.559Z,10.70
2023-03-22T01:04:25.985Z,10.70
2023-03-22T01:07:01.573Z,10.70
2023-03-22T01:09:31.090Z,10.70
2023-03-22T01:12:00.441Z,10.70
2023-03-22T01:14:31.918Z,10.70
2023-03-22T01:17:01.003Z,10.70
2023-03-22T01:19:30.993Z,10.70
2023-03-22T01:21:59.098Z,10.70
2023-03-22T01:24:30.097Z,10.70
2023-03-22T01:26:59.673Z,10.70
2023-03-22T01:29:28.828Z,10.70
2023-03-22T01:32:01.477Z,10.70
2023-03-22T01:35:15.744Z,10.70
2023-03-22T01:38:08.853Z,10.70
2023-03-22T01:41:04.919Z,10.70
2023-03-22T01:44:02.097Z,10.70
2023-03-22T01:46:33.345Z,10.70
2023-03-22T01:49:14.586Z,10.70
2023-03-22T01:52:08.500Z,10.70
2023-03-22T01:54:42.911Z,10.70
2023-03-22T01:57:21.839Z,10.70
2023-03-22T01:59:51.459Z,10.70
2023-03-22T02:02:21.650Z,10.70
2023-03-22T02:04:58.870Z,10.70
2023-03-22T02:07:52.407Z,10.70
2023-03-22T02:10:23.629Z,10.80
2023-03-22T02:13:11.861Z,10.80
2023-03-22T02:15:47.167Z,10.80
2023-03-22T02:18:32.182Z,10.80
2023-03-22T02:21:31.086Z,10.80
2023-03-22T02:24:30.736Z,10.80
2023-03-22T02:27:39.195Z,10.80
2023-03-22T02:30:28.989Z,10.80
2023-03-22T02:33:35.963Z,10.80
2023-03-22T02:36:42.598Z,10.90
2023-03-22T02:39:57.959Z,10.90
2023-03-22T02:42:57.316Z,10.80
2023-03-22T02:45:33.366Z,10.90
2023-03-22T02:48:49.054Z,10.90
2023-03-22T02:51:40.008Z,10.90
2023-03-22T02:54:34.185Z,10.90
2023-03-22T02:57:09.983Z,10.90
2023-03-22T02:59:45.927Z,10.80
2023-03-22T03:02:20.754Z,10.90
2023-03-22T03:05:10.741Z,10.80
2023-03-22T03:07:41.761Z,10.80
2023-03-22T03:10:20.161Z,10.70
2023-03-22T03:12:49.977Z,10.80
2023-03-22T03:15:42.584Z,10.80
2023-03-22T03:18:27.515Z,10.80
2023-03-22T03:21:07.023Z,10.80
2023-03-22T03:23:47.274Z,10.80
2023-03-22T03:26:32.276Z,10.80
2023-03-22T03:29:06.916Z,10.80
2023-03-22T03:31:45.684Z,10.80
2023-03-22T03:34:23.720Z,10.80
2023-03-22T03:37:20.366Z,10.80
2023-03-22T03:39:56.919Z,10.80
2023-03-22T03:42:55.724Z,10.80
2023-03-22T03:45:27.151Z,10.80
2023-03-22T03:48:00.140Z,10.90
2023-03-22T03:50:36.651Z,10.80
2023-03-22T03:53:14.536Z,10.90
2023-03-22T03:55:44.794Z,10.80
2023-03-22T03:58:35.351Z,10.80
2023-03-22T04:01:05.325Z,10.80
2023-03-22T04:03:36.884Z,10.80
2023-03-22T04:06:46.739Z,10.80
2023-03-22T04:09:16.436Z,10.80
2023-03-22T04:11:47.165Z,10.80
2023-03-22T04:14:19.267Z,10.80
2023-03-22T04:16:50.853Z,10.80
2023-03-22T04:19:21.831Z,10.80
2023-03-22T04:21:53.222Z,10.80
2023-03-22T04:24:24.797Z,10.80
2023-03-22T04:26:59.585Z,10.80
2023-03-22T04:29:36.312Z,10.80
2023-03-22T04:32:08.891Z,10.80
2023-03-22T04:34:42.231Z,10.80
2023-03-22T04:37:31.928Z,10.80
2023-03-22T04:40:05.909Z,10.80
2023-03-22T04:42:34.745Z,10.80
2023-03-22T04:45:12.450Z,10.80
2023-03-22T04:47:40.855Z,10.80
2023-03-22T04:50:15.526Z,10.80
2023-03-22T04:52:43.928Z,10.80
2023-03-22T04:55:23.360Z,10.70
2023-03-22T04:57:55.030Z,10.80
2023-03-22T05:00:33.229Z,10.80
2023-03-22T05:03:02.835Z,10.80
2023-03-22T05:05:31.338Z,10.80
2023-03-22T05:08:01.280Z,10.80
2023-03-22T05:10:49.676Z,10.70
2023-03-22T05:13:25.040Z,10.70
2023-03-22T05:15:55.552Z,10.70
2023-03-22T05:18:26.307Z,10.70
2023-03-22T05:21:16.837Z,10.70
2023-03-22T05:23:46.407Z,10.70
2023-03-22T05:26:20.623Z,10.70
2023-03-22T05:28:50.037Z,10.70
2023-03-22T05:31:33.267Z,10.70
2023-03-22T05:34:03.375Z,10.70
2023-03-22T05:36:32.444Z,10.70
2023-03-22T05:39:03.092Z,10.70
2023-03-22T05:41:37.119Z,10.70
2023-03-22T05:44:06.270Z,10.70
2023-03-22T05:46:39.416Z,10.70
2023-03-22T05:49:07.495Z,10.70
2023-03-22T05:51:42.427Z,10.70
2023-03-22T05:54:13.219Z,10.70
2023-03-22T05:56:41.243Z,10.70
2023-03-22T05:59:09.234Z,10.70
2023-03-22T06:01:39.470Z,10.70
2023-03-22T06:04:07.487Z,10.70
2023-03-22T06:06:35.539Z,10.70
2023-03-22T06:09:16.384Z,10.70
2023-03-22T06:11:45.260Z,10.70
2023-03-22T06:14:13.457Z,10.70
2023-03-22T06:16:42.837Z,10.70
2023-03-22T06:19:11.106Z,10.80
2023-03-22T06:21:41.893Z,10.70
2023-03-22T06:24:10.207Z,10.70
2023-03-22T06:26:38.222Z,10.70
2023-03-22T06:29:06.576Z,10.80
2023-03-22T06:31:34.627Z,10.80
2023-03-22T06:34:04.177Z,10.80
2023-03-22T06:36:32.549Z,10.70
2023-03-22T06:39:02.816Z,10.80
2023-03-22T06:41:31.097Z,10.80
2023-03-22T06:43:59.264Z,10.80
2023-03-22T06:46:27.522Z,10.80
2023-03-22T06:48:55.727Z,10.80
2023-03-22T06:51:25.297Z,10.90
2023-03-22T06:53:53.375Z,10.80
2023-03-22T06:56:21.443Z,10.90
2023-03-22T06:58:51.728Z,10.90
2023-03-22T07:01:19.809Z,10.90
2023-03-22T07:03:48.207Z,10.90
2023-03-22T07:06:16.294Z,11.00
2023-03-22T07:08:45.975Z,11.00
2023-03-22T07:11:14.017Z,11.00
2023-03-22T07:13:41.955Z,11.00
2023-03-22T07:16:10.966Z,11.00
2023-03-22T07:18:39.285Z,11.00
2023-03-22T07:21:08.138Z,11.00
2023-03-22T07:23:38.610Z,11.10
2023-03-22T07:26:08.647Z,11.10
2023-03-22T07:28:36.916Z,11.10
2023-03-22T07:31:07.251Z,11.10
2023-03-22T07:33:35.348Z,11.10
2023-03-22T07:36:03.373Z,11.20
2023-03-22T07:38:31.466Z,11.20
2023-03-22T07:40:59.482Z,11.20
2023-03-22T07:43:28.834Z,11.30
2023-03-22T07:45:56.904Z,11.20
2023-03-22T07:48:25.643Z,11.20
2023-03-22T07:50:57.381Z,11.20
2023-03-22T07:53:28.148Z,11.20
2023-03-22T07:55:56.073Z,11.20
2023-03-22T07:58:26.281Z,11.20
2023-03-22T08:00:55.697Z,11.20
2023-03-22T08:03:23.858Z,11.20
2023-03-22T08:05:51.988Z,11.20
2023-03-22T08:08:21.551Z,11.10
2023-03-22T08:10:52.966Z,11.10
2023-03-22T08:13:21.156Z,11.10
2023-03-22T08:15:53.344Z,11.10
2023-03-22T08:18:22.736Z,11.10
2023-03-22T08:20:54.567Z,11.10
2023-03-22T08:23:31.646Z,11.00
2023-03-22T08:26:07.136Z,11.00
2023-03-22T08:28:35.528Z,11.00
2023-03-22T08:31:10.494Z,11.00
2023-03-22T08:33:40.185Z,11.10
2023-03-22T08:36:09.796Z,11.00
2023-03-22T08:38:38.137Z,11.10
2023-03-22T08:41:06.724Z,11.00
2023-03-22T08:43:34.813Z,11.00
2023-03-22T08:46:03.108Z,11.00
2023-03-22T08:48:31.899Z,11.00
2023-03-22T08:51:02.207Z,11.00
2023-03-22T08:53:30.679Z,11.00
2023-03-22T08:56:02.021Z,11.00
2023-03-22T08:58:30.200Z,10.90
2023-03-22T09:00:58.324Z,10.90
2023-03-22T09:03:26.546Z,10.90
2023-03-22T09:05:54.909Z,10.90
2023-03-22T09:08:24.253Z,10.90
2023-03-22T09:10:52.464Z,10.90
2023-03-22T09:13:21.076Z,10.90
2023-03-22T09:15:49.526Z,10.90
2023-03-22T09:18:17.621Z,10.90
2023-03-22T09:20:46.273Z,10.90
2023-03-22T09:23:15.489Z,10.90
2023-03-22T09:25:46.514Z,11.00
2023-03-22T09:28:14.687Z,10.90
2023-03-22T09:30:42.934Z,11.00
2023-03-22T09:33:11.568Z,11.00
2023-03-22T09:35:42.969Z,11.00
2023-03-22T09:38:12.241Z,10.90
2023-03-22T09:40:50.212Z,11.00
2023-03-22T09:43:19.834Z,10.90
2023-03-22T09:45:51.519Z,11.00
2023-03-22T09:48:22.795Z,11.00
2023-03-22T09:50:55.678Z,11.00
2023-03-22T09:53:27.653Z,11.00
2023-03-22T09:56:02.035Z,10.90
2023-03-22T09:58:34.860Z,10.90
2023-03-22T10:01:06.480Z,10.90
2023-03-22T10:04:11.583Z,10.90
2023-03-22T10:06:41.171Z,11.00
2023-03-22T10:09:15.599Z,11.00
2023-03-22T10:11:50.238Z,11.00
2023-03-22T10:14:34.270Z,11.00
2023-03-22T10:17:06.760Z,11.00
2023-03-22T10:19:41.084Z,11.00
2023-03-22T10:22:13.782Z,11.00
2023-03-22T10:24:46.549Z,11.00
2023-03-22T10:27:18.837Z,11.00
2023-03-22T10:29:50.795Z,11.10
2023-03-22T10:32:21.254Z,11.10
2023-03-22T10:34:49.446Z,11.20
2023-03-22T10:37:21.476Z,11.20
2023-03-22T10:39:53.692Z,11.20
2023-03-22T10:42:27.463Z,11.30
2023-03-22T10:44:59.953Z,11.30
2023-03-22T10:47:34.379Z,11.30
2023-03-22T10:50:06.009Z,11.40
2023-03-22T10:52:45.110Z,11.40
2023-03-22T10:55:14.680Z,11.40
2023-03-22T10:57:52.776Z,11.50
2023-03-22T11:00:24.279Z,11.50
2023-03-22T11:02:54.886Z,11.60
2023-03-22T11:05:25.839Z,11.60
2023-03-22T11:07:54.917Z,11.60
2023-03-22T11:10:29.936Z,11.60
2023-03-22T11:13:18.404Z,11.60
2023-03-22T11:15:55.792Z,11.60
2023-03-22T11:18:28.129Z,11.60
2023-03-22T11:21:01.866Z,11.70
2023-03-22T11:23:38.758Z,11.60
2023-03-22T11:26:10.314Z,11.60
2023-03-22T11:28:46.852Z,11.60
2023-03-22T11:31:17.505Z,11.60
2023-03-22T11:33:57.322Z,11.60
2023-03-22T11:36:25.807Z,11.60
2023-03-22T11:38:59.370Z,11.60
2023-03-22T11:41:29.701Z,11.60
2023-03-22T11:44:03.065Z,11.60
2023-03-22T11:46:32.436Z,11.60
2023-03-22T11:49:04.478Z,11.60
2023-03-22T11:51:35.492Z,11.60
2023-03-22T11:54:10.034Z,11.60
2023-03-22T11:56:43.459Z,11.60
2023-03-22T11:59:16.667Z,11.60
2023-03-22T12:01:49.487Z,11.60
2023-03-22T12:04:22.513Z,11.60
2023-03-22T12:06:53.709Z,11.70
2023-03-22T12:09:29.389Z,11.60
2023-03-22T12:12:00.431Z,11.60
2023-03-22T12:14:33.673Z,11.70
2023-03-22T12:17:07.354Z,11.70
2023-03-22T12:19:46.292Z,11.80
2023-03-22T12:22:17.081Z,11.80
2023-03-22T12:25:10.422Z,11.80
2023-03-22T12:27:41.264Z,11.90
2023-03-22T12:30:15.889Z,11.90
2023-03-22T12:32:48.229Z,11.90
2023-03-22T12:35:19.742Z,11.90
2023-03-22T12:37:51.969Z,12.00
2023-03-22T12:40:26.944Z,11.90
2023-03-22T12:43:02.119Z,12.00
2023-03-22T12:45:37.172Z,12.10
2023-03-22T12:48:11.309Z,12.10
2023-03-22T12:50:44.716Z,12.10
2023-03-22T12:53:16.082Z,12.20
2023-03-22T12:55:45.988Z,12.20
2023-03-22T12:58:16.767Z,12.20
2023-03-22T13:00:49.761Z,12.30
2023-03-22T13:03:26.800Z,12.30
2023-03-22T13:06:03.412Z,12.30
2023-03-22T13:09:04.875Z,12.30
2023-03-22T13:11:32.905Z,12.40
2023-03-22T13:14:01.194Z,12.40
2023-03-22T13:16:54.393Z,12.40
2023-03-22T13:19:33.028Z,12.40
2023-03-22T13:22:22.103Z,12.40
2023-03-22T13:25:01.393Z,12.50
2023-03-22T13:27:38.864Z,12.50
2023-03-22T13:30:15.828Z,12.50
2023-03-22T13:32:55.990Z,12.50
2023-03-22T13:35:28.274Z,12.50
2023-03-22T13:38:03.732Z,12.60
2023-03-22T13:40:37.743Z,12.60
2023-03-22T13:43:29.388Z,12.60
2023-03-22T13:46:13.286Z,12.60
2023-03-22T13:48:52.237Z,12.70
2023-03-22T13:51:29.213Z,12.70
2023-03-22T13:54:03.488Z,12.70
2023-03-22T13:56:52.589Z,12.60
2023-03-22T13:59:24.271Z,12.60
2023-03-22T14:01:54.601Z,12.60
2023-03-22T14:04:30.092Z,12.60
2023-03-22T14:07:01.151Z,12.60
2023-03-22T14:09:33.608Z,12.60
2023-03-22T14:12:08.364Z,12.70
2023-03-22T14:14:43.131Z,12.70
2023-03-22T14:17:23.155Z,12.70
2023-03-22T14:19:56.723Z,12.70
